Terminal Aerodrome Forecast
Issued by NWS

Home | Current Version | Previous Version | Text Only | Print | Product List | Glossary On
Versions: 1 2 3 4 5 6 7 8 9 10 11 12 13 14 15 16 17 18 19 20
663
FTUS44 KLIX 251120
TAFGPT
TAF
KGPT 251120Z 2512/2612 15010KT P6SM VCSH BKN015 OVC030
     FM251500 16013KT P6SM VCSH BKN050
      TEMPO 2516/2519 VRB15G25KT 4SM TSRA BKN015CB
     FM252200 17010KT P6SM SCT060
     FM260200 17004KT P6SM SCT040
      TEMPO 2609/2612 5SM BR BKN020=

USA.gov is the U.S. government's official web portal to all federal, state and local government web resources and services.